createdAt,value
2022-08-07T08:15:01.093Z,54.3
2022-08-07T08:23:30.608Z,53.7
2022-08-07T08:31:58.480Z,56.1
2022-08-07T08:39:38.851Z,55.1
2022-08-07T08:46:49.758Z,56.7
2022-08-07T08:54:19.939Z,54.7
2022-08-07T09:01:18.803Z,54.2
2022-08-07T09:08:34.281Z,53
2022-08-07T09:17:02.079Z,52
2022-08-07T09:29:24.594Z,59.8
2022-08-07T09:38:10.463Z,59.8
2022-08-07T09:50:20.101Z,59.3
2022-08-07T10:06:54.110Z,62.1
2022-08-07T10:16:21.145Z,61.9
2022-08-07T10:24:23.295Z,58.9
2022-08-07T10:30:45.414Z,62.9
2022-08-07T10:39:22.945Z,63.4
2022-08-07T10:48:10.337Z,64.2
2022-08-07T10:55:53.756Z,64.8
2022-08-07T11:03:11.082Z,64.8
2022-08-07T11:11:37.793Z,65.3
2022-08-07T11:20:12.390Z,65.6
2022-08-07T11:26:43.383Z,64.1
2022-08-07T11:34:44.100Z,62.1
2022-08-07T11:42:36.034Z,62.6
2022-08-07T11:52:14.635Z,60.3
2022-08-07T12:00:48.831Z,59.4
2022-08-07T12:09:39.559Z,58.9
2022-08-07T12:17:22.108Z,60.1
2022-08-07T12:28:24.082Z,57.8
2022-08-07T12:35:57.883Z,56.8
2022-08-07T12:45:15.855Z,56.9
2022-08-07T12:53:17.524Z,56.4
2022-08-07T13:01:48.643Z,56.8
2022-08-07T13:12:19.524Z,56.6
2022-08-07T13:20:02.432Z,55.3
2022-08-07T13:28:41.524Z,55.3
2022-08-07T13:37:37.271Z,56.9
2022-08-07T13:46:28.200Z,57.2
2022-08-07T13:56:35.270Z,56.6
2022-08-07T14:05:11.260Z,56.1
2022-08-07T14:13:22.807Z,54.3
2022-08-07T14:22:50.397Z,53.3
2022-08-07T19:59:10.846Z,37
2022-08-07T20:07:04.188Z,36.8
2022-08-07T20:16:54.292Z,36.4
2022-08-07T20:24:33.151Z,36.2
2022-08-07T20:38:53.484Z,36.1
2022-08-07T20:48:12.021Z,36.1
2022-08-07T20:57:05.395Z,36.1
2022-08-07T21:12:48.100Z,36.1
2022-08-07T21:22:25.670Z,36
2022-08-07T21:29:21.528Z,35.9
2022-08-07T21:37:58.996Z,35.9
2022-08-07T21:47:05.596Z,35.9
2022-08-07T21:54:25.266Z,35.8
2022-08-07T22:02:27.349Z,35.8
2022-08-07T22:09:53.994Z,35.8
2022-08-07T22:18:14.360Z,35.8
2022-08-07T22:24:49.591Z,35.8
2022-08-07T22:32:20.243Z,35.8
2022-08-07T22:39:52.129Z,35.8
2022-08-07T22:56:29.478Z,35.8
2022-08-07T23:02:44.044Z,35.7
2022-08-07T23:12:50.536Z,35.7
2022-08-07T23:21:08.118Z,35.6
2022-08-07T23:39:41.601Z,35.6
2022-08-07T23:46:19.875Z,35.6
